Marquette, WI (53947)

1:27 PM CDT on June 22, 2017 (GMT -0500)
Brooks Southside addition | | Change Station

Elev 823 ft 43.84 °N, 88.95 °W | Updated 4 minutes ago

Rain
Rain
72.0 °F
Feels Like 71 °F
N
1.0
Wind Variable Wind from WSW
Gusts 6.0 mph

Today
High -- | Low -- °F
--% Chance of Precip.
Yesterday
High -- | Low -- °F
Precip. -- in
Pressure 29.84 in
Visibility 10.0 miles
Clouds Scattered Clouds 9500 ft
Mostly Cloudy 12000 ft
Heat Index 71 °F
Dew Point 68 °F
Humidity 86%
Rainfall 0.43 in
Snow Depth Not available.
5:15 AM 8:42 PM
Waning Crescent, 3% visible
METAR KY50 221756Z AUTO 23009KT 10SM SCT095 BKN120 23/19 A2979 RMK AO2 RAB18E38 SLP103 P0000 6//// T02330194 10239 20206 53014
Pressure 29.84 in
Visibility 10.0 miles
Clouds Scattered Clouds 9500 ft
Mostly Cloudy 12000 ft
Heat Index 71 °F
Dew Point 68 °F
Humidity 86%
Rainfall 0.43 in
Snow Depth Not available.
5:15 AM 8:42 PM
Waning Crescent, 3% visible
METAR KY50 221756Z AUTO 23009KT 10SM SCT095 BKN120 23/19 A2979 RMK AO2 RAB18E38 SLP103 P0000 6//// T02330194 10239 20206 53014

Get Severe Weather Alerts

Thanks for signing up!

Be on the lookout for a verification email in your inbox.

You'll start receiving the daily forecast at 6 AM.

×

10-Day Weather Forecast

Almanac

Astronomy

Jun. 22, 2017 Rise Set
Actual Time
Civil Twilight
Nautical Twilight
Astronomical Twilight
Moon
Length of Visible Light
Length of Day
Tomorrow will be .
, % of the Moon is Illuminated

Today's Extremes

State Highs State Lows

Community

WunderPhotos

Category 6

Welcome to Category 6. This is the collective home for Weather Underground's featured writeups by Dr. Jeff Masters (right), Bob Henson (left), Chris Burt, and other regular contributors.

Nearby

Air Quality

  Air Quality AQ Index Pollutant
Not available.

Snow Depth

Station Depth Elevation

Earthquake Activity

City Distance Mag. Time & Date
Minimum magnitude displayed is 2.5.

Coastal Water Temperatures

Place Temperature

Stations

Nearby Weather Stations

Station Location Temp. Windchill Dew Point Humidity Wind Precip. Elev Updated Type
                   

Watches & Warnings

There are currently no watches in effect.